sensor_id;sensor_type;location;lat;lon;timestamp;temperature;humidity
5344;DHT22;2694;48.954;8.928;2023-09-19T00:00:31;16.50;99.90
5344;DHT22;2694;48.954;8.928;2023-09-19T00:02:59;16.40;99.90
5344;DHT22;2694;48.954;8.928;2023-09-19T00:05:28;16.50;99.90
5344;DHT22;2694;48.954;8.928;2023-09-19T00:07:56;16.40;99.90
5344;DHT22;2694;48.954;8.928;2023-09-19T00:10:24;16.40;99.90
5344;DHT22;2694;48.954;8.928;2023-09-19T00:12:52;16.30;99.90
5344;DHT22;2694;48.954;8.928;2023-09-19T00:15:21;16.30;99.90
5344;DHT22;2694;48.954;8.928;2023-09-19T00:17:47;16.30;99.90
5344;DHT22;2694;48.954;8.928;2023-09-19T00:20:14;16.30;99.90
5344;DHT22;2694;48.954;8.928;2023-09-19T00:22:44;16.40;99.90
5344;DHT22;2694;48.954;8.928;2023-09-19T00:25:11;16.50;99.90
5344;DHT22;2694;48.954;8.928;2023-09-19T00:27:40;16.60;99.90
5344;DHT22;2694;48.954;8.928;2023-09-19T00:30:09;16.60;99.90
5344;DHT22;2694;48.954;8.928;2023-09-19T00:32:41;16.70;99.90
5344;DHT22;2694;48.954;8.928;2023-09-19T00:35:08;16.80;99.90
5344;DHT22;2694;48.954;8.928;2023-09-19T00:37:36;16.90;99.90
5344;DHT22;2694;48.954;8.928;2023-09-19T00:40:05;17.00;99.90
5344;DHT22;2694;48.954;8.928;2023-09-19T00:42:37;17.20;99.90
5344;DHT22;2694;48.954;8.928;2023-09-19T00:45:05;17.30;99.90
5344;DHT22;2694;48.954;8.928;2023-09-19T00:47:35;17.40;99.90
5344;DHT22;2694;48.954;8.928;2023-09-19T00:50:04;17.50;99.90
5344;DHT22;2694;48.954;8.928;2023-09-19T00:52:33;17.50;99.90
5344;DHT22;2694;48.954;8.928;2023-09-19T00:55:02;17.50;99.90
5344;DHT22;2694;48.954;8.928;2023-09-19T00:57:30;17.40;99.90
5344;DHT22;2694;48.954;8.928;2023-09-19T01:00:00;17.30;99.90
5344;DHT22;2694;48.954;8.928;2023-09-19T01:02:31;17.30;99.90
5344;DHT22;2694;48.954;8.928;2023-09-19T01:04:58;17.20;99.90
5344;DHT22;2694;48.954;8.928;2023-09-19T01:07:25;17.00;99.90
5344;DHT22;2694;48.954;8.928;2023-09-19T01:09:52;17.00;99.90
5344;DHT22;2694;48.954;8.928;2023-09-19T01:12:26;16.90;99.90
5344;DHT22;2694;48.954;8.928;2023-09-19T01:15:03;16.90;99.90
5344;DHT22;2694;48.954;8.928;2023-09-19T01:17:39;16.90;99.90
5344;DHT22;2694;48.954;8.928;2023-09-19T01:20:16;16.90;99.90
5344;DHT22;2694;48.954;8.928;2023-09-19T01:22:53;17.00;99.90
5344;DHT22;2694;48.954;8.928;2023-09-19T01:25:50;16.90;99.90
5344;DHT22;2694;48.954;8.928;2023-09-19T01:28:33;16.90;99.90
5344;DHT22;2694;48.954;8.928;2023-09-19T01:31:08;16.90;99.90
5344;DHT22;2694;48.954;8.928;2023-09-19T01:33:55;16.90;99.90
5344;DHT22;2694;48.954;8.928;2023-09-19T01:36:28;17.00;99.90
5344;DHT22;2694;48.954;8.928;2023-09-19T01:38:57;16.90;99.90
5344;DHT22;2694;48.954;8.928;2023-09-19T01:41:29;16.90;99.90
5344;DHT22;2694;48.954;8.928;2023-09-19T01:44:00;16.80;99.90
5344;DHT22;2694;48.954;8.928;2023-09-19T01:46:34;16.70;99.90
5344;DHT22;2694;48.954;8.928;2023-09-19T01:49:25;16.70;99.90
5344;DHT22;2694;48.954;8.928;2023-09-19T01:51:59;16.60;99.90
5344;DHT22;2694;48.954;8.928;2023-09-19T01:54:33;16.80;99.90
5344;DHT22;2694;48.954;8.928;2023-09-19T01:57:07;16.80;99.90
5344;DHT22;2694;48.954;8.928;2023-09-19T01:59:43;16.80;99.90
5344;DHT22;2694;48.954;8.928;2023-09-19T02:02:14;16.80;99.90
5344;DHT22;2694;48.954;8.928;2023-09-19T02:04:43;16.70;99.90
5344;DHT22;2694;48.954;8.928;2023-09-19T02:07:10;16.60;99.90
5344;DHT22;2694;48.954;8.928;2023-09-19T02:09:37;16.60;99.90
5344;DHT22;2694;48.954;8.928;2023-09-19T02:12:05;16.50;99.90
5344;DHT22;2694;48.954;8.928;2023-09-19T02:14:32;16.50;99.90
5344;DHT22;2694;48.954;8.928;2023-09-19T02:16:59;16.40;99.90
5344;DHT22;2694;48.954;8.928;2023-09-19T02:19:27;16.40;99.90
5344;DHT22;2694;48.954;8.928;2023-09-19T02:21:55;16.40;99.90
5344;DHT22;2694;48.954;8.928;2023-09-19T02:24:22;16.30;99.90
5344;DHT22;2694;48.954;8.928;2023-09-19T02:26:52;16.20;99.90
5344;DHT22;2694;48.954;8.928;2023-09-19T02:29:20;16.20;99.90
5344;DHT22;2694;48.954;8.928;2023-09-19T02:31:47;16.20;99.90
5344;DHT22;2694;48.954;8.928;2023-09-19T02:34:14;16.30;99.90
5344;DHT22;2694;48.954;8.928;2023-09-19T02:36:43;16.30;99.90
5344;DHT22;2694;48.954;8.928;2023-09-19T02:39:11;16.30;99.90
5344;DHT22;2694;48.954;8.928;2023-09-19T02:41:38;16.40;99.90
5344;DHT22;2694;48.954;8.928;2023-09-19T02:44:07;16.40;99.90
5344;DHT22;2694;48.954;8.928;2023-09-19T02:46:34;16.50;99.90
5344;DHT22;2694;48.954;8.928;2023-09-19T02:49:01;16.70;99.90
5344;DHT22;2694;48.954;8.928;2023-09-19T02:51:29;16.90;99.90
5344;DHT22;2694;48.954;8.928;2023-09-19T02:53:57;16.90;99.90
5344;DHT22;2694;48.954;8.928;2023-09-19T02:56:24;16.90;99.90
5344;DHT22;2694;48.954;8.928;2023-09-19T02:58:51;17.10;99.90
5344;DHT22;2694;48.954;8.928;2023-09-19T03:01:18;17.10;99.90
5344;DHT22;2694;48.954;8.928;2023-09-19T03:03:46;17.00;99.90
5344;DHT22;2694;48.954;8.928;2023-09-19T03:06:13;17.00;99.90
5344;DHT22;2694;48.954;8.928;2023-09-19T03:08:40;17.00;99.90
5344;DHT22;2694;48.954;8.928;2023-09-19T03:11:12;17.10;99.90
5344;DHT22;2694;48.954;8.928;2023-09-19T03:13:43;17.20;99.90
5344;DHT22;2694;48.954;8.928;2023-09-19T03:16:11;17.20;99.90
5344;DHT22;2694;48.954;8.928;2023-09-19T03:18:40;17.30;99.90
5344;DHT22;2694;48.954;8.928;2023-09-19T03:21:07;17.30;99.90
5344;DHT22;2694;48.954;8.928;2023-09-19T03:23:34;17.50;99.90
5344;DHT22;2694;48.954;8.928;2023-09-19T03:26:02;17.40;99.90
5344;DHT22;2694;48.954;8.928;2023-09-19T03:28:33;17.40;99.90
5344;DHT22;2694;48.954;8.928;2023-09-19T03:31:01;17.50;99.90
5344;DHT22;2694;48.954;8.928;2023-09-19T03:33:28;17.50;99.90
5344;DHT22;2694;48.954;8.928;2023-09-19T03:35:57;17.40;99.90
5344;DHT22;2694;48.954;8.928;2023-09-19T03:38:24;17.50;99.90
5344;DHT22;2694;48.954;8.928;2023-09-19T03:40:51;17.50;99.90
5344;DHT22;2694;48.954;8.928;2023-09-19T03:43:18;17.50;99.90
5344;DHT22;2694;48.954;8.928;2023-09-19T03:45:47;17.60;99.90
5344;DHT22;2694;48.954;8.928;2023-09-19T03:48:14;17.60;99.90
5344;DHT22;2694;48.954;8.928;2023-09-19T03:50:41;17.30;99.90
5344;DHT22;2694;48.954;8.928;2023-09-19T03:53:09;17.00;99.90
5344;DHT22;2694;48.954;8.928;2023-09-19T03:55:36;16.70;99.90
5344;DHT22;2694;48.954;8.928;2023-09-19T03:58:04;16.50;99.90
5344;DHT22;2694;48.954;8.928;2023-09-19T04:00:31;16.50;99.90
5344;DHT22;2694;48.954;8.928;2023-09-19T04:03:01;16.40;99.90
5344;DHT22;2694;48.954;8.928;2023-09-19T04:05:31;16.30;99.90
5344;DHT22;2694;48.954;8.928;2023-09-19T04:07:59;16.30;99.90
5344;DHT22;2694;48.954;8.928;2023-09-19T04:10:26;16.30;99.90
5344;DHT22;2694;48.954;8.928;2023-09-19T04:12:54;16.20;99.90
5344;DHT22;2694;48.954;8.928;2023-09-19T04:15:21;16.20;99.90
5344;DHT22;2694;48.954;8.928;2023-09-19T04:17:49;16.30;99.90
5344;DHT22;2694;48.954;8.928;2023-09-19T04:20:17;16.20;99.90
5344;DHT22;2694;48.954;8.928;2023-09-19T04:22:45;16.10;99.90
5344;DHT22;2694;48.954;8.928;2023-09-19T04:25:13;16.10;99.90
5344;DHT22;2694;48.954;8.928;2023-09-19T04:27:40;16.10;99.90
5344;DHT22;2694;48.954;8.928;2023-09-19T04:30:07;16.20;99.90
5344;DHT22;2694;48.954;8.928;2023-09-19T04:32:37;16.30;99.90
5344;DHT22;2694;48.954;8.928;2023-09-19T04:35:05;16.30;99.90
5344;DHT22;2694;48.954;8.928;2023-09-19T04:37:37;16.30;99.90
5344;DHT22;2694;48.954;8.928;2023-09-19T04:40:06;16.30;99.90
5344;DHT22;2694;48.954;8.928;2023-09-19T04:42:38;16.30;99.90
5344;DHT22;2694;48.954;8.928;2023-09-19T04:45:06;16.30;99.90
5344;DHT22;2694;48.954;8.928;2023-09-19T04:47:34;16.30;99.90
5344;DHT22;2694;48.954;8.928;2023-09-19T04:50:01;16.30;99.90
5344;DHT22;2694;48.954;8.928;2023-09-19T04:52:30;16.30;99.90
5344;DHT22;2694;48.954;8.928;2023-09-19T04:54:59;16.40;99.90
5344;DHT22;2694;48.954;8.928;2023-09-19T04:57:26;16.50;99.90
5344;DHT22;2694;48.954;8.928;2023-09-19T04:59:53;16.50;99.90
5344;DHT22;2694;48.954;8.928;2023-09-19T05:02:20;16.40;99.90
5344;DHT22;2694;48.954;8.928;2023-09-19T05:04:47;16.50;99.90
5344;DHT22;2694;48.954;8.928;2023-09-19T05:07:14;16.50;99.90
5344;DHT22;2694;48.954;8.928;2023-09-19T05:09:42;16.60;99.90
5344;DHT22;2694;48.954;8.928;2023-09-19T05:12:10;16.50;99.90
5344;DHT22;2694;48.954;8.928;2023-09-19T05:14:37;16.50;99.90
5344;DHT22;2694;48.954;8.928;2023-09-19T05:17:06;16.50;99.90
5344;DHT22;2694;48.954;8.928;2023-09-19T05:19:33;16.50;99.90
5344;DHT22;2694;48.954;8.928;2023-09-19T05:22:00;16.40;99.90
5344;DHT22;2694;48.954;8.928;2023-09-19T05:24:29;16.40;99.90
5344;DHT22;2694;48.954;8.928;2023-09-19T05:26:56;16.40;99.90
5344;DHT22;2694;48.954;8.928;2023-09-19T05:29:24;16.40;99.90
5344;DHT22;2694;48.954;8.928;2023-09-19T05:31:51;16.30;99.90
5344;DHT22;2694;48.954;8.928;2023-09-19T05:34:20;16.30;99.90
5344;DHT22;2694;48.954;8.928;2023-09-19T05:36:47;16.20;99.90
5344;DHT22;2694;48.954;8.928;2023-09-19T05:39:14;16.30;99.90
5344;DHT22;2694;48.954;8.928;2023-09-19T05:41:41;16.30;99.90
5344;DHT22;2694;48.954;8.928;2023-09-19T05:44:08;16.20;99.90
5344;DHT22;2694;48.954;8.928;2023-09-19T05:46:36;16.20;99.90
5344;DHT22;2694;48.954;8.928;2023-09-19T05:49:03;16.20;99.90
5344;DHT22;2694;48.954;8.928;2023-09-19T05:51:30;16.10;99.90
5344;DHT22;2694;48.954;8.928;2023-09-19T05:53:57;18.10;99.90
5344;DHT22;2694;48.954;8.928;2023-09-19T05:56:24;16.10;99.90
5344;DHT22;2694;48.954;8.928;2023-09-19T05:58:52;16.10;99.90
5344;DHT22;2694;48.954;8.928;2023-09-19T06:01:19;16.10;99.90
5344;DHT22;2694;48.954;8.928;2023-09-19T06:03:47;16.10;99.90
5344;DHT22;2694;48.954;8.928;2023-09-19T06:06:14;16.10;99.90
5344;DHT22;2694;48.954;8.928;2023-09-19T06:08:42;16.20;99.90
5344;DHT22;2694;48.954;8.928;2023-09-19T06:11:10;16.20;99.90
5344;DHT22;2694;48.954;8.928;2023-09-19T06:13:37;16.20;99.90
5344;DHT22;2694;48.954;8.928;2023-09-19T06:16:05;16.30;99.90
5344;DHT22;2694;48.954;8.928;2023-09-19T06:18:32;16.30;99.90
5344;DHT22;2694;48.954;8.928;2023-09-19T06:21:01;16.20;99.90
5344;DHT22;2694;48.954;8.928;2023-09-19T06:23:31;16.20;99.90
5344;DHT22;2694;48.954;8.928;2023-09-19T06:25:57;16.30;99.90
5344;DHT22;2694;48.954;8.928;2023-09-19T06:28:24;16.40;99.90
5344;DHT22;2694;48.954;8.928;2023-09-19T06:30:53;16.50;99.90
5344;DHT22;2694;48.954;8.928;2023-09-19T06:33:20;16.50;99.90
5344;DHT22;2694;48.954;8.928;2023-09-19T06:35:48;16.70;99.90
5344;DHT22;2694;48.954;8.928;2023-09-19T06:38:16;16.70;99.90
5344;DHT22;2694;48.954;8.928;2023-09-19T06:40:43;16.60;99.90
5344;DHT22;2694;48.954;8.928;2023-09-19T06:43:10;16.70;99.90
5344;DHT22;2694;48.954;8.928;2023-09-19T06:45:37;16.70;99.90
5344;DHT22;2694;48.954;8.928;2023-09-19T06:48:05;16.70;99.90
5344;DHT22;2694;48.954;8.928;2023-09-19T06:50:32;16.70;99.90
5344;DHT22;2694;48.954;8.928;2023-09-19T06:53:00;16.80;99.90
5344;DHT22;2694;48.954;8.928;2023-09-19T06:55:29;16.80;99.90
5344;DHT22;2694;48.954;8.928;2023-09-19T06:57:56;16.80;99.90
5344;DHT22;2694;48.954;8.928;2023-09-19T07:00:24;16.80;99.90
5344;DHT22;2694;48.954;8.928;2023-09-19T07:02:58;16.80;99.90
5344;DHT22;2694;48.954;8.928;2023-09-19T07:05:27;16.90;99.90
5344;DHT22;2694;48.954;8.928;2023-09-19T07:07:54;16.90;99.90
5344;DHT22;2694;48.954;8.928;2023-09-19T07:10:22;17.00;99.90
5344;DHT22;2694;48.954;8.928;2023-09-19T07:12:56;17.00;99.90
5344;DHT22;2694;48.954;8.928;2023-09-19T07:15:24;17.00;99.90
5344;DHT22;2694;48.954;8.928;2023-09-19T07:17:51;16.90;99.90
5344;DHT22;2694;48.954;8.928;2023-09-19T07:20:19;16.90;99.90
5344;DHT22;2694;48.954;8.928;2023-09-19T07:22:46;17.00;99.90
5344;DHT22;2694;48.954;8.928;2023-09-19T07:25:15;16.90;99.90
5344;DHT22;2694;48.954;8.928;2023-09-19T07:27:41;17.00;99.90
5344;DHT22;2694;48.954;8.928;2023-09-19T07:30:11;15.10;99.90
5344;DHT22;2694;48.954;8.928;2023-09-19T07:32:38;17.00;99.90
5344;DHT22;2694;48.954;8.928;2023-09-19T07:35:06;17.00;99.90
5344;DHT22;2694;48.954;8.928;2023-09-19T07:37:33;17.00;99.90
5344;DHT22;2694;48.954;8.928;2023-09-19T07:40:01;17.10;99.90
5344;DHT22;2694;48.954;8.928;2023-09-19T07:42:32;17.20;99.90
5344;DHT22;2694;48.954;8.928;2023-09-19T07:45:00;17.20;99.90
5344;DHT22;2694;48.954;8.928;2023-09-19T07:47:29;17.30;99.90
5344;DHT22;2694;48.954;8.928;2023-09-19T07:49:58;19.00;99.90
5344;DHT22;2694;48.954;8.928;2023-09-19T07:52:25;17.20;99.90
5344;DHT22;2694;48.954;8.928;2023-09-19T07:54:53;17.20;99.90
5344;DHT22;2694;48.954;8.928;2023-09-19T07:57:20;17.40;99.90
5344;DHT22;2694;48.954;8.928;2023-09-19T07:59:47;17.60;99.90
5344;DHT22;2694;48.954;8.928;2023-09-19T08:02:14;17.70;99.90
5344;DHT22;2694;48.954;8.928;2023-09-19T08:04:44;17.80;99.90
5344;DHT22;2694;48.954;8.928;2023-09-19T08:07:11;17.90;99.90
5344;DHT22;2694;48.954;8.928;2023-09-19T08:09:39;18.00;99.90
5344;DHT22;2694;48.954;8.928;2023-09-19T08:12:06;18.10;99.90
5344;DHT22;2694;48.954;8.928;2023-09-19T08:14:36;18.30;99.90
5344;DHT22;2694;48.954;8.928;2023-09-19T08:17:03;18.50;99.90
5344;DHT22;2694;48.954;8.928;2023-09-19T08:19:31;18.50;99.90
5344;DHT22;2694;48.954;8.928;2023-09-19T08:21:59;18.70;99.90
5344;DHT22;2694;48.954;8.928;2023-09-19T08:24:27;18.90;99.90
5344;DHT22;2694;48.954;8.928;2023-09-19T08:26:54;19.20;99.90
5344;DHT22;2694;48.954;8.928;2023-09-19T08:29:22;19.40;99.90
5344;DHT22;2694;48.954;8.928;2023-09-19T08:31:53;19.50;99.90
5344;DHT22;2694;48.954;8.928;2023-09-19T08:34:21;19.50;99.90
5344;DHT22;2694;48.954;8.928;2023-09-19T08:36:50;19.30;99.90
5344;DHT22;2694;48.954;8.928;2023-09-19T08:39:18;19.20;99.90
5344;DHT22;2694;48.954;8.928;2023-09-19T08:41:45;18.30;99.90
5344;DHT22;2694;48.954;8.928;2023-09-19T08:44:12;19.10;99.90
5344;DHT22;2694;48.954;8.928;2023-09-19T08:46:41;19.20;99.90
5344;DHT22;2694;48.954;8.928;2023-09-19T08:49:13;19.20;99.90
5344;DHT22;2694;48.954;8.928;2023-09-19T08:51:53;19.20;99.90
5344;DHT22;2694;48.954;8.928;2023-09-19T08:54:30;19.10;99.90
5344;DHT22;2694;48.954;8.928;2023-09-19T08:57:00;19.20;99.90
5344;DHT22;2694;48.954;8.928;2023-09-19T08:59:33;19.40;99.90
5344;DHT22;2694;48.954;8.928;2023-09-19T09:02:02;19.30;99.90
5344;DHT22;2694;48.954;8.928;2023-09-19T09:04:29;19.30;99.90
5344;DHT22;2694;48.954;8.928;2023-09-19T09:06:57;19.30;99.90
5344;DHT22;2694;48.954;8.928;2023-09-19T09:09:25;19.30;99.90
5344;DHT22;2694;48.954;8.928;2023-09-19T09:11:53;19.40;99.90
5344;DHT22;2694;48.954;8.928;2023-09-19T09:14:22;19.50;99.90
5344;DHT22;2694;48.954;8.928;2023-09-19T09:16:50;19.40;99.90
5344;DHT22;2694;48.954;8.928;2023-09-19T09:19:17;19.20;99.90
5344;DHT22;2694;48.954;8.928;2023-09-19T09:21:50;19.10;99.90
5344;DHT22;2694;48.954;8.928;2023-09-19T09:24:30;19.10;99.90
5344;DHT22;2694;48.954;8.928;2023-09-19T09:26:59;19.10;99.90
5344;DHT22;2694;48.954;8.928;2023-09-19T09:29:44;19.20;99.90
5344;DHT22;2694;48.954;8.928;2023-09-19T09:32:23;19.60;99.90
5344;DHT22;2694;48.954;8.928;2023-09-19T09:34:51;19.90;99.90
5344;DHT22;2694;48.954;8.928;2023-09-19T09:37:19;20.20;99.90
5344;DHT22;2694;48.954;8.928;2023-09-19T09:39:53;20.30;99.90
5344;DHT22;2694;48.954;8.928;2023-09-19T09:42:32;19.90;99.90
5344;DHT22;2694;48.954;8.928;2023-09-19T09:45:18;19.70;99.90
5344;DHT22;2694;48.954;8.928;2023-09-19T09:47:54;19.80;99.90
5344;DHT22;2694;48.954;8.928;2023-09-19T09:50:29;20.20;99.90
5344;DHT22;2694;48.954;8.928;2023-09-19T09:53:19;20.80;99.90
5344;DHT22;2694;48.954;8.928;2023-09-19T09:56:01;21.60;99.90
5344;DHT22;2694;48.954;8.928;2023-09-19T09:58:31;21.70;99.90
5344;DHT22;2694;48.954;8.928;2023-09-19T10:00:59;21.40;99.90
5344;DHT22;2694;48.954;8.928;2023-09-19T10:03:35;21.00;99.90
5344;DHT22;2694;48.954;8.928;2023-09-19T10:06:06;20.80;99.90
5344;DHT22;2694;48.954;8.928;2023-09-19T10:09:00;20.90;99.90
5344;DHT22;2694;48.954;8.928;2023-09-19T10:11:41;21.20;99.90
5344;DHT22;2694;48.954;8.928;2023-09-19T10:14:09;21.40;99.90
5344;DHT22;2694;48.954;8.928;2023-09-19T10:16:41;21.00;99.90
5344;DHT22;2694;48.954;8.928;2023-09-19T10:19:15;21.10;99.90
5344;DHT22;2694;48.954;8.928;2023-09-19T10:21:43;21.10;99.90
5344;DHT22;2694;48.954;8.928;2023-09-19T10:24:12;21.10;99.90
5344;DHT22;2694;48.954;8.928;2023-09-19T10:26:44;21.30;99.90
5344;DHT22;2694;48.954;8.928;2023-09-19T10:29:13;21.00;99.90
5344;DHT22;2694;48.954;8.928;2023-09-19T10:31:42;20.90;99.90
5344;DHT22;2694;48.954;8.928;2023-09-19T10:34:14;21.10;99.90
5344;DHT22;2694;48.954;8.928;2023-09-19T10:36:45;21.70;99.90
5344;DHT22;2694;48.954;8.928;2023-09-19T10:39:14;22.10;99.90
5344;DHT22;2694;48.954;8.928;2023-09-19T10:41:49;21.90;99.90
5344;DHT22;2694;48.954;8.928;2023-09-19T10:44:23;22.00;99.90
5344;DHT22;2694;48.954;8.928;2023-09-19T10:46:51;22.10;99.90
5344;DHT22;2694;48.954;8.928;2023-09-19T10:49:19;22.30;99.90
5344;DHT22;2694;48.954;8.928;2023-09-19T10:51:49;22.40;99.90
5344;DHT22;2694;48.954;8.928;2023-09-19T10:54:18;22.90;99.90
5344;DHT22;2694;48.954;8.928;2023-09-19T10:56:49;22.90;99.90
5344;DHT22;2694;48.954;8.928;2023-09-19T10:59:18;22.50;99.90
5344;DHT22;2694;48.954;8.928;2023-09-19T11:01:47;22.00;99.90
5344;DHT22;2694;48.954;8.928;2023-09-19T11:04:27;22.00;99.90
5344;DHT22;2694;48.954;8.928;2023-09-19T11:07:02;21.80;99.90
5344;DHT22;2694;48.954;8.928;2023-09-19T11:09:49;22.00;99.90
5344;DHT22;2694;48.954;8.928;2023-09-19T11:12:50;22.30;99.90
5344;DHT22;2694;48.954;8.928;2023-09-19T11:18:53;22.90;99.90
5344;DHT22;2694;48.954;8.928;2023-09-19T11:21:40;23.00;99.90
5344;DHT22;2694;48.954;8.928;2023-09-19T11:24:29;23.00;99.90
5344;DHT22;2694;48.954;8.928;2023-09-19T11:27:13;22.80;99.90
5344;DHT22;2694;48.954;8.928;2023-09-19T11:29:44;22.60;99.90
5344;DHT22;2694;48.954;8.928;2023-09-19T11:32:12;22.50;99.90
5344;DHT22;2694;48.954;8.928;2023-09-19T11:34:46;22.60;99.90
5344;DHT22;2694;48.954;8.928;2023-09-19T11:40:37;22.10;99.90
5344;DHT22;2694;48.954;8.928;2023-09-19T11:43:30;22.10;99.90
5344;DHT22;2694;48.954;8.928;2023-09-19T11:46:06;22.10;99.90
5344;DHT22;2694;48.954;8.928;2023-09-19T11:48:35;22.00;99.90
5344;DHT22;2694;48.954;8.928;2023-09-19T11:51:13;22.20;99.90
5344;DHT22;2694;48.954;8.928;2023-09-19T11:53:48;22.30;99.90
5344;DHT22;2694;48.954;8.928;2023-09-19T11:56:16;22.50;99.90
5344;DHT22;2694;48.954;8.928;2023-09-19T11:58:44;22.60;99.90
5344;DHT22;2694;48.954;8.928;2023-09-19T12:01:22;22.30;99.90
5344;DHT22;2694;48.954;8.928;2023-09-19T12:03:53;22.20;99.90
5344;DHT22;2694;48.954;8.928;2023-09-19T12:06:23;22.20;99.90
5344;DHT22;2694;48.954;8.928;2023-09-19T12:08:50;22.30;99.90
5344;DHT22;2694;48.954;8.928;2023-09-19T12:11:20;22.30;99.90
5344;DHT22;2694;48.954;8.928;2023-09-19T12:13:49;22.20;99.90
5344;DHT22;2694;48.954;8.928;2023-09-19T12:16:18;22.20;99.90
5344;DHT22;2694;48.954;8.928;2023-09-19T12:18:47;22.00;99.90
5344;DHT22;2694;48.954;8.928;2023-09-19T12:21:27;22.20;99.90
5344;DHT22;2694;48.954;8.928;2023-09-19T12:24:13;22.50;99.90
5344;DHT22;2694;48.954;8.928;2023-09-19T12:26:44;22.80;99.90
5344;DHT22;2694;48.954;8.928;2023-09-19T12:29:14;22.50;99.90
5344;DHT22;2694;48.954;8.928;2023-09-19T12:31:54;22.10;99.90
5344;DHT22;2694;48.954;8.928;2023-09-19T12:34:24;21.90;99.90
5344;DHT22;2694;48.954;8.928;2023-09-19T12:37:09;22.00;99.90
5344;DHT22;2694;48.954;8.928;2023-09-19T12:39:42;22.10;99.90
5344;DHT22;2694;48.954;8.928;2023-09-19T12:42:10;22.20;99.90
5344;DHT22;2694;48.954;8.928;2023-09-19T12:44:41;22.00;99.90
5344;DHT22;2694;48.954;8.928;2023-09-19T12:47:11;21.80;99.90
5344;DHT22;2694;48.954;8.928;2023-09-19T12:50:10;21.80;99.90
5344;DHT22;2694;48.954;8.928;2023-09-19T12:52:44;21.70;99.90
5344;DHT22;2694;48.954;8.928;2023-09-19T12:55:26;21.80;99.90
5344;DHT22;2694;48.954;8.928;2023-09-19T12:58:03;21.90;99.90
5344;DHT22;2694;48.954;8.928;2023-09-19T13:00:35;22.00;99.90
5344;DHT22;2694;48.954;8.928;2023-09-19T13:03:15;21.90;99.90
5344;DHT22;2694;48.954;8.928;2023-09-19T13:05:48;22.00;99.90
5344;DHT22;2694;48.954;8.928;2023-09-19T13:08:29;21.90;99.90
5344;DHT22;2694;48.954;8.928;2023-09-19T13:11:09;22.00;99.90
5344;DHT22;2694;48.954;8.928;2023-09-19T13:13:41;22.00;99.90
5344;DHT22;2694;48.954;8.928;2023-09-19T13:16:10;21.90;99.90
5344;DHT22;2694;48.954;8.928;2023-09-19T13:18:49;22.10;99.90
5344;DHT22;2694;48.954;8.928;2023-09-19T13:21:27;22.10;99.90
5344;DHT22;2694;48.954;8.928;2023-09-19T13:23:56;22.20;99.90
5344;DHT22;2694;48.954;8.928;2023-09-19T13:26:25;22.10;99.90
5344;DHT22;2694;48.954;8.928;2023-09-19T13:28:53;22.10;99.90
5344;DHT22;2694;48.954;8.928;2023-09-19T13:31:20;22.30;99.90
5344;DHT22;2694;48.954;8.928;2023-09-19T13:33:49;22.20;99.90
5344;DHT22;2694;48.954;8.928;2023-09-19T13:36:17;22.20;99.90
5344;DHT22;2694;48.954;8.928;2023-09-19T13:38:44;22.30;99.80
5344;DHT22;2694;48.954;8.928;2023-09-19T13:41:14;22.40;99.80
5344;DHT22;2694;48.954;8.928;2023-09-19T13:43:42;22.50;99.80
5344;DHT22;2694;48.954;8.928;2023-09-19T13:46:13;22.50;99.90
5344;DHT22;2694;48.954;8.928;2023-09-19T13:48:43;22.40;99.70
5344;DHT22;2694;48.954;8.928;2023-09-19T13:51:11;22.50;99.90
5344;DHT22;2694;48.954;8.928;2023-09-19T13:53:38;22.50;99.80
5344;DHT22;2694;48.954;8.928;2023-09-19T13:56:05;22.60;98.90
5344;DHT22;2694;48.954;8.928;2023-09-19T13:58:32;22.50;99.00
5344;DHT22;2694;48.954;8.928;2023-09-19T14:00:59;22.60;99.10
5344;DHT22;2694;48.954;8.928;2023-09-19T14:03:26;22.60;99.40
5344;DHT22;2694;48.954;8.928;2023-09-19T14:05:54;22.60;99.20
5344;DHT22;2694;48.954;8.928;2023-09-19T14:08:22;22.50;99.80
5344;DHT22;2694;48.954;8.928;2023-09-19T14:10:50;22.40;99.00
5344;DHT22;2694;48.954;8.928;2023-09-19T14:13:17;22.30;99.00
5344;DHT22;2694;48.954;8.928;2023-09-19T14:15:44;22.30;99.50
5344;DHT22;2694;48.954;8.928;2023-09-19T14:18:10;22.30;99.90
5344;DHT22;2694;48.954;8.928;2023-09-19T14:20:38;22.40;99.70
5344;DHT22;2694;48.954;8.928;2023-09-19T14:23:06;22.40;99.90
5344;DHT22;2694;48.954;8.928;2023-09-19T14:25:35;22.60;99.30
5344;DHT22;2694;48.954;8.928;2023-09-19T14:28:04;22.70;99.60
5344;DHT22;2694;48.954;8.928;2023-09-19T14:30:32;22.80;98.30
5344;DHT22;2694;48.954;8.928;2023-09-19T14:32:59;22.80;98.30
5344;DHT22;2694;48.954;8.928;2023-09-19T14:35:26;22.70;98.30
5344;DHT22;2694;48.954;8.928;2023-09-19T14:37:53;22.80;98.00
5344;DHT22;2694;48.954;8.928;2023-09-19T14:40:20;22.80;97.90
5344;DHT22;2694;48.954;8.928;2023-09-19T14:42:49;22.90;98.30
5344;DHT22;2694;48.954;8.928;2023-09-19T14:45:16;23.00;99.50
5344;DHT22;2694;48.954;8.928;2023-09-19T14:47:45;22.90;98.70
5344;DHT22;2694;48.954;8.928;2023-09-19T14:50:12;22.70;98.70
5344;DHT22;2694;48.954;8.928;2023-09-19T14:52:40;22.40;99.30
5344;DHT22;2694;48.954;8.928;2023-09-19T14:55:07;22.30;99.10
5344;DHT22;2694;48.954;8.928;2023-09-19T14:57:40;22.20;99.20
5344;DHT22;2694;48.954;8.928;2023-09-19T15:00:10;22.40;99.50
5344;DHT22;2694;48.954;8.928;2023-09-19T15:02:38;22.50;99.60
5344;DHT22;2694;48.954;8.928;2023-09-19T15:05:06;22.50;99.20
5344;DHT22;2694;48.954;8.928;2023-09-19T15:07:35;22.50;98.10
5344;DHT22;2694;48.954;8.928;2023-09-19T15:10:02;22.50;99.00
5344;DHT22;2694;48.954;8.928;2023-09-19T15:12:32;22.40;99.00
5344;DHT22;2694;48.954;8.928;2023-09-19T15:15:00;22.30;99.30
5344;DHT22;2694;48.954;8.928;2023-09-19T15:17:29;22.20;99.30
5344;DHT22;2694;48.954;8.928;2023-09-19T15:19:55;22.30;98.90
5344;DHT22;2694;48.954;8.928;2023-09-19T15:22:22;22.40;99.00
5344;DHT22;2694;48.954;8.928;2023-09-19T15:24:50;22.40;98.60
5344;DHT22;2694;48.954;8.928;2023-09-19T15:27:17;22.40;99.20
5344;DHT22;2694;48.954;8.928;2023-09-19T15:29:45;22.40;99.00
5344;DHT22;2694;48.954;8.928;2023-09-19T15:32:13;22.30;99.00
5344;DHT22;2694;48.954;8.928;2023-09-19T15:34:41;22.10;99.50
5344;DHT22;2694;48.954;8.928;2023-09-19T15:37:08;22.20;99.10
5344;DHT22;2694;48.954;8.928;2023-09-19T15:39:35;22.10;99.60
5344;DHT22;2694;48.954;8.928;2023-09-19T15:42:03;21.80;99.70
5344;DHT22;2694;48.954;8.928;2023-09-19T15:44:30;21.70;99.40
5344;DHT22;2694;48.954;8.928;2023-09-19T15:46:57;21.60;99.30
5344;DHT22;2694;48.954;8.928;2023-09-19T15:49:25;21.50;99.90
5344;DHT22;2694;48.954;8.928;2023-09-19T15:51:53;21.40;99.60
5344;DHT22;2694;48.954;8.928;2023-09-19T15:54:20;21.40;99.70
5344;DHT22;2694;48.954;8.928;2023-09-19T15:56:47;21.50;99.90
5344;DHT22;2694;48.954;8.928;2023-09-19T15:59:14;21.50;99.50
5344;DHT22;2694;48.954;8.928;2023-09-19T16:01:43;21.50;99.70
5344;DHT22;2694;48.954;8.928;2023-09-19T16:04:10;21.60;99.90
5344;DHT22;2694;48.954;8.928;2023-09-19T16:06:38;21.60;99.80
5344;DHT22;2694;48.954;8.928;2023-09-19T16:09:06;21.60;99.90
5344;DHT22;2694;48.954;8.928;2023-09-19T16:11:34;21.60;99.90
5344;DHT22;2694;48.954;8.928;2023-09-19T16:14:02;21.60;99.90
5344;DHT22;2694;48.954;8.928;2023-09-19T16:16:30;21.60;99.90
5344;DHT22;2694;48.954;8.928;2023-09-19T16:18:58;21.50;99.90
5344;DHT22;2694;48.954;8.928;2023-09-19T16:21:27;21.40;99.90
5344;DHT22;2694;48.954;8.928;2023-09-19T16:23:55;21.50;99.90
5344;DHT22;2694;48.954;8.928;2023-09-19T16:26:24;21.40;99.90